sensor_id;sensor_type;location;lat;lon;timestamp;P1;durP1;ratioP1;P2;durP2;ratioP2
74245;SDS011;62601;51.044;13.788;2022-11-15T00:00:53;42.13;;;30.70;;
74245;SDS011;62601;51.044;13.788;2022-11-15T00:03:14;43.00;;;30.90;;
74245;SDS011;62601;51.044;13.788;2022-11-15T00:05:36;44.80;;;29.48;;
74245;SDS011;62601;51.044;13.788;2022-11-15T00:07:57;44.15;;;31.35;;
74245;SDS011;62601;51.044;13.788;2022-11-15T00:10:19;44.05;;;30.00;;
74245;SDS011;62601;51.044;13.788;2022-11-15T00:12:39;40.88;;;29.25;;
74245;SDS011;62601;51.044;13.788;2022-11-15T00:14:59;45.30;;;29.30;;
74245;SDS011;62601;51.044;13.788;2022-11-15T00:17:19;44.05;;;31.13;;
74245;SDS011;62601;51.044;13.788;2022-11-15T00:19:41;44.97;;;31.92;;
74245;SDS011;62601;51.044;13.788;2022-11-15T00:22:01;41.85;;;29.70;;
74245;SDS011;62601;51.044;13.788;2022-11-15T00:24:21;43.08;;;31.67;;
74245;SDS011;62601;51.044;13.788;2022-11-15T00:26:42;47.22;;;33.25;;
74245;SDS011;62601;51.044;13.788;2022-11-15T00:29:02;44.42;;;31.52;;
74245;SDS011;62601;51.044;13.788;2022-11-15T00:31:22;44.00;;;32.10;;
74245;SDS011;62601;51.044;13.788;2022-11-15T00:33:43;46.30;;;30.95;;
74245;SDS011;62601;51.044;13.788;2022-11-15T00:36:05;45.22;;;30.38;;
74245;SDS011;62601;51.044;13.788;2022-11-15T00:38:29;38.33;;;28.83;;
74245;SDS011;62601;51.044;13.788;2022-11-15T00:40:50;45.25;;;31.38;;
74245;SDS011;62601;51.044;13.788;2022-11-15T00:43:11;44.67;;;30.52;;
74245;SDS011;62601;51.044;13.788;2022-11-15T00:45:33;44.10;;;31.38;;
74245;SDS011;62601;51.044;13.788;2022-11-15T00:47:54;44.60;;;31.13;;
74245;SDS011;62601;51.044;13.788;2022-11-15T00:50:16;48.05;;;32.42;;
74245;SDS011;62601;51.044;13.788;2022-11-15T00:52:37;47.72;;;31.10;;
74245;SDS011;62601;51.044;13.788;2022-11-15T00:54:58;46.70;;;31.85;;
74245;SDS011;62601;51.044;13.788;2022-11-15T00:57:19;48.42;;;33.17;;
74245;SDS011;62601;51.044;13.788;2022-11-15T00:59:40;47.60;;;31.80;;
74245;SDS011;62601;51.044;13.788;2022-11-15T01:02:02;47.63;;;32.22;;
74245;SDS011;62601;51.044;13.788;2022-11-15T01:04:22;48.08;;;33.42;;
74245;SDS011;62601;51.044;13.788;2022-11-15T01:06:44;45.83;;;31.23;;
74245;SDS011;62601;51.044;13.788;2022-11-15T01:09:05;45.10;;;30.58;;
74245;SDS011;62601;51.044;13.788;2022-11-15T01:11:26;44.50;;;32.38;;
74245;SDS011;62601;51.044;13.788;2022-11-15T01:13:46;47.38;;;32.42;;
74245;SDS011;62601;51.044;13.788;2022-11-15T01:16:15;51.10;;;33.90;;
74245;SDS011;62601;51.044;13.788;2022-11-15T01:18:36;44.85;;;31.48;;
74245;SDS011;62601;51.044;13.788;2022-11-15T01:20:56;47.40;;;32.88;;
74245;SDS011;62601;51.044;13.788;2022-11-15T01:23:19;46.75;;;31.42;;
74245;SDS011;62601;51.044;13.788;2022-11-15T01:25:39;45.63;;;32.40;;
74245;SDS011;62601;51.044;13.788;2022-11-15T01:28:00;52.95;;;33.72;;
74245;SDS011;62601;51.044;13.788;2022-11-15T01:30:23;46.70;;;31.45;;
74245;SDS011;62601;51.044;13.788;2022-11-15T01:32:43;50.00;;;33.22;;
74245;SDS011;62601;51.044;13.788;2022-11-15T01:35:06;51.30;;;33.72;;
74245;SDS011;62601;51.044;13.788;2022-11-15T01:37:27;49.72;;;32.70;;
74245;SDS011;62601;51.044;13.788;2022-11-15T01:39:47;52.58;;;33.60;;
74245;SDS011;62601;51.044;13.788;2022-11-15T01:42:12;53.17;;;32.55;;
74245;SDS011;62601;51.044;13.788;2022-11-15T01:44:48;50.20;;;31.52;;
74245;SDS011;62601;51.044;13.788;2022-11-15T01:49:52;51.92;;;32.60;;
74245;SDS011;62601;51.044;13.788;2022-11-15T01:52:18;48.42;;;31.70;;
74245;SDS011;62601;51.044;13.788;2022-11-15T01:54:38;52.08;;;32.90;;
74245;SDS011;62601;51.044;13.788;2022-11-15T01:57:07;49.63;;;31.10;;
74245;SDS011;62601;51.044;13.788;2022-11-15T01:59:27;49.83;;;31.90;;
74245;SDS011;62601;51.044;13.788;2022-11-15T02:01:48;47.60;;;32.40;;
74245;SDS011;62601;51.044;13.788;2022-11-15T02:07:05;45.63;;;30.13;;
74245;SDS011;62601;51.044;13.788;2022-11-15T02:09:27;53.03;;;34.38;;
74245;SDS011;62601;51.044;13.788;2022-11-15T02:11:49;50.03;;;32.60;;
74245;SDS011;62601;51.044;13.788;2022-11-15T02:14:13;54.92;;;31.52;;
74245;SDS011;62601;51.044;13.788;2022-11-15T02:21:35;46.65;;;30.88;;
74245;SDS011;62601;51.044;13.788;2022-11-15T02:24:17;49.22;;;31.52;;
74245;SDS011;62601;51.044;13.788;2022-11-15T02:26:52;43.83;;;29.63;;
74245;SDS011;62601;51.044;13.788;2022-11-15T02:29:36;44.28;;;30.38;;
74245;SDS011;62601;51.044;13.788;2022-11-15T02:42:43;45.83;;;28.70;;
74245;SDS011;62601;51.044;13.788;2022-11-15T02:45:06;45.80;;;29.95;;
74245;SDS011;62601;51.044;13.788;2022-11-15T02:47:27;41.08;;;26.20;;
74245;SDS011;62601;51.044;13.788;2022-11-15T02:49:50;44.70;;;29.20;;
74245;SDS011;62601;51.044;13.788;2022-11-15T02:52:15;47.03;;;29.98;;
74245;SDS011;62601;51.044;13.788;2022-11-15T02:54:37;41.78;;;27.80;;
74245;SDS011;62601;51.044;13.788;2022-11-15T03:02:37;41.80;;;27.85;;
74245;SDS011;62601;51.044;13.788;2022-11-15T03:05:13;46.10;;;28.70;;
74245;SDS011;62601;51.044;13.788;2022-11-15T03:08:00;44.60;;;28.95;;
74245;SDS011;62601;51.044;13.788;2022-11-15T03:10:24;43.42;;;28.75;;
74245;SDS011;62601;51.044;13.788;2022-11-15T03:12:56;43.63;;;29.10;;
74245;SDS011;62601;51.044;13.788;2022-11-15T03:15:21;46.00;;;29.52;;
74245;SDS011;62601;51.044;13.788;2022-11-15T03:18:03;46.28;;;29.30;;
74245;SDS011;62601;51.044;13.788;2022-11-15T03:20:29;41.47;;;28.23;;
74245;SDS011;62601;51.044;13.788;2022-11-15T03:22:53;42.45;;;28.58;;
74245;SDS011;62601;51.044;13.788;2022-11-15T03:25:16;40.55;;;27.05;;
74245;SDS011;62601;51.044;13.788;2022-11-15T03:27:41;44.22;;;28.00;;
74245;SDS011;62601;51.044;13.788;2022-11-15T03:30:05;39.90;;;27.08;;
74245;SDS011;62601;51.044;13.788;2022-11-15T03:32:28;41.78;;;28.08;;
74245;SDS011;62601;51.044;13.788;2022-11-15T03:35:50;39.25;;;27.30;;
74245;SDS011;62601;51.044;13.788;2022-11-15T03:40:22;45.67;;;30.17;;
74245;SDS011;62601;51.044;13.788;2022-11-15T03:45:27;44.92;;;28.95;;
74245;SDS011;62601;51.044;13.788;2022-11-15T03:48:13;43.35;;;28.40;;
74245;SDS011;62601;51.044;13.788;2022-11-15T03:50:35;43.03;;;28.13;;
74245;SDS011;62601;51.044;13.788;2022-11-15T03:52:55;44.25;;;28.83;;
74245;SDS011;62601;51.044;13.788;2022-11-15T03:55:19;44.95;;;27.10;;
74245;SDS011;62601;51.044;13.788;2022-11-15T03:57:41;41.10;;;26.88;;
74245;SDS011;62601;51.044;13.788;2022-11-15T04:00:03;39.42;;;25.95;;
74245;SDS011;62601;51.044;13.788;2022-11-15T04:02:23;39.85;;;26.67;;
74245;SDS011;62601;51.044;13.788;2022-11-15T04:04:47;40.53;;;27.73;;
74245;SDS011;62601;51.044;13.788;2022-11-15T04:07:09;44.67;;;28.05;;
74245;SDS011;62601;51.044;13.788;2022-11-15T04:09:30;41.72;;;26.30;;
74245;SDS011;62601;51.044;13.788;2022-11-15T04:11:50;41.20;;;26.20;;
74245;SDS011;62601;51.044;13.788;2022-11-15T04:14:10;35.85;;;25.13;;
74245;SDS011;62601;51.044;13.788;2022-11-15T04:16:30;40.17;;;26.00;;
74245;SDS011;62601;51.044;13.788;2022-11-15T04:18:51;42.20;;;25.40;;
74245;SDS011;62601;51.044;13.788;2022-11-15T04:21:12;37.28;;;25.58;;
74245;SDS011;62601;51.044;13.788;2022-11-15T04:23:33;38.38;;;25.50;;
74245;SDS011;62601;51.044;13.788;2022-11-15T04:25:55;37.70;;;25.23;;
74245;SDS011;62601;51.044;13.788;2022-11-15T04:28:17;38.83;;;24.75;;
74245;SDS011;62601;51.044;13.788;2022-11-15T04:30:39;40.30;;;27.40;;
74245;SDS011;62601;51.044;13.788;2022-11-15T04:33:00;34.75;;;24.17;;
74245;SDS011;62601;51.044;13.788;2022-11-15T04:35:22;39.45;;;26.75;;
74245;SDS011;62601;51.044;13.788;2022-11-15T04:37:43;37.33;;;26.17;;
74245;SDS011;62601;51.044;13.788;2022-11-15T04:40:03;38.58;;;26.30;;
74245;SDS011;62601;51.044;13.788;2022-11-15T04:42:25;40.53;;;26.77;;
74245;SDS011;62601;51.044;13.788;2022-11-15T04:44:46;41.55;;;26.08;;
74245;SDS011;62601;51.044;13.788;2022-11-15T04:47:08;38.53;;;25.52;;
74245;SDS011;62601;51.044;13.788;2022-11-15T04:49:29;37.22;;;24.75;;
74245;SDS011;62601;51.044;13.788;2022-11-15T04:51:51;39.40;;;25.20;;
74245;SDS011;62601;51.044;13.788;2022-11-15T04:54:12;43.10;;;25.75;;
74245;SDS011;62601;51.044;13.788;2022-11-15T04:56:33;35.65;;;24.80;;
74245;SDS011;62601;51.044;13.788;2022-11-15T04:58:55;40.25;;;26.90;;
74245;SDS011;62601;51.044;13.788;2022-11-15T05:01:16;37.88;;;25.10;;
74245;SDS011;62601;51.044;13.788;2022-11-15T05:03:38;36.13;;;25.65;;
74245;SDS011;62601;51.044;13.788;2022-11-15T05:05:59;38.60;;;24.58;;
74245;SDS011;62601;51.044;13.788;2022-11-15T05:08:21;38.00;;;24.55;;
74245;SDS011;62601;51.044;13.788;2022-11-15T05:10:42;40.47;;;25.08;;
74245;SDS011;62601;51.044;13.788;2022-11-15T05:13:03;38.38;;;26.25;;
74245;SDS011;62601;51.044;13.788;2022-11-15T05:15:25;41.33;;;25.92;;
74245;SDS011;62601;51.044;13.788;2022-11-15T05:17:49;39.05;;;26.10;;
74245;SDS011;62601;51.044;13.788;2022-11-15T05:20:12;39.60;;;26.17;;
74245;SDS011;62601;51.044;13.788;2022-11-15T05:22:32;40.83;;;26.17;;
74245;SDS011;62601;51.044;13.788;2022-11-15T05:24:53;38.05;;;23.83;;
74245;SDS011;62601;51.044;13.788;2022-11-15T05:27:14;37.58;;;25.50;;
74245;SDS011;62601;51.044;13.788;2022-11-15T05:29:35;38.28;;;26.15;;
74245;SDS011;62601;51.044;13.788;2022-11-15T05:31:55;41.53;;;25.27;;
74245;SDS011;62601;51.044;13.788;2022-11-15T05:34:16;41.08;;;26.05;;
74245;SDS011;62601;51.044;13.788;2022-11-15T05:36:44;36.88;;;25.88;;
74245;SDS011;62601;51.044;13.788;2022-11-15T05:39:08;40.90;;;26.33;;
74245;SDS011;62601;51.044;13.788;2022-11-15T05:41:44;39.03;;;25.08;;
74245;SDS011;62601;51.044;13.788;2022-11-15T05:44:08;33.95;;;23.45;;
74245;SDS011;62601;51.044;13.788;2022-11-15T05:46:33;37.83;;;25.55;;
74245;SDS011;62601;51.044;13.788;2022-11-15T05:48:58;40.40;;;25.67;;
74245;SDS011;62601;51.044;13.788;2022-11-15T05:51:20;38.33;;;25.63;;
74245;SDS011;62601;51.044;13.788;2022-11-15T05:53:52;35.30;;;23.88;;
74245;SDS011;62601;51.044;13.788;2022-11-15T05:56:17;37.40;;;24.58;;
74245;SDS011;62601;51.044;13.788;2022-11-15T05:58:39;42.30;;;26.02;;
74245;SDS011;62601;51.044;13.788;2022-11-15T06:00:59;37.80;;;24.80;;
74245;SDS011;62601;51.044;13.788;2022-11-15T06:03:24;37.22;;;24.77;;
74245;SDS011;62601;51.044;13.788;2022-11-15T06:05:45;37.63;;;24.73;;
74245;SDS011;62601;51.044;13.788;2022-11-15T06:08:05;34.63;;;23.30;;
74245;SDS011;62601;51.044;13.788;2022-11-15T06:10:28;38.65;;;25.02;;
74245;SDS011;62601;51.044;13.788;2022-11-15T06:12:59;38.78;;;24.42;;
74245;SDS011;62601;51.044;13.788;2022-11-15T06:15:21;35.55;;;23.02;;
74245;SDS011;62601;51.044;13.788;2022-11-15T06:17:43;37.22;;;25.05;;
74245;SDS011;62601;51.044;13.788;2022-11-15T06:20:03;38.15;;;23.92;;
74245;SDS011;62601;51.044;13.788;2022-11-15T06:22:24;39.72;;;24.45;;
74245;SDS011;62601;51.044;13.788;2022-11-15T06:24:45;43.35;;;25.17;;
74245;SDS011;62601;51.044;13.788;2022-11-15T06:27:07;35.63;;;23.50;;
74245;SDS011;62601;51.044;13.788;2022-11-15T06:29:28;37.65;;;25.30;;
74245;SDS011;62601;51.044;13.788;2022-11-15T06:31:49;38.58;;;24.42;;
74245;SDS011;62601;51.044;13.788;2022-11-15T06:34:11;35.90;;;24.17;;
74245;SDS011;62601;51.044;13.788;2022-11-15T06:36:34;36.38;;;23.65;;
74245;SDS011;62601;51.044;13.788;2022-11-15T06:38:58;36.28;;;23.50;;
74245;SDS011;62601;51.044;13.788;2022-11-15T06:41:19;40.55;;;24.20;;
74245;SDS011;62601;51.044;13.788;2022-11-15T06:43:41;35.88;;;23.45;;
74245;SDS011;62601;51.044;13.788;2022-11-15T06:46:03;37.70;;;23.90;;
74245;SDS011;62601;51.044;13.788;2022-11-15T06:48:25;38.03;;;24.20;;
74245;SDS011;62601;51.044;13.788;2022-11-15T06:50:52;41.13;;;23.45;;
74245;SDS011;62601;51.044;13.788;2022-11-15T06:53:17;34.50;;;22.90;;
74245;SDS011;62601;51.044;13.788;2022-11-15T06:55:37;35.85;;;23.60;;
74245;SDS011;62601;51.044;13.788;2022-11-15T06:57:58;31.98;;;21.55;;
74245;SDS011;62601;51.044;13.788;2022-11-15T07:00:20;36.55;;;22.00;;
74245;SDS011;62601;51.044;13.788;2022-11-15T07:02:45;32.13;;;20.95;;
74245;SDS011;62601;51.044;13.788;2022-11-15T07:05:07;34.90;;;21.40;;
74245;SDS011;62601;51.044;13.788;2022-11-15T07:07:28;32.72;;;22.15;;
74245;SDS011;62601;51.044;13.788;2022-11-15T07:09:49;32.30;;;20.83;;
74245;SDS011;62601;51.044;13.788;2022-11-15T07:12:11;37.97;;;23.35;;
74245;SDS011;62601;51.044;13.788;2022-11-15T07:14:32;33.95;;;21.42;;
74245;SDS011;62601;51.044;13.788;2022-11-15T07:16:53;32.15;;;22.48;;
74245;SDS011;62601;51.044;13.788;2022-11-15T07:19:15;34.70;;;22.63;;
74245;SDS011;62601;51.044;13.788;2022-11-15T07:21:36;39.03;;;23.88;;
74245;SDS011;62601;51.044;13.788;2022-11-15T07:23:57;30.77;;;21.52;;
74245;SDS011;62601;51.044;13.788;2022-11-15T07:26:19;34.75;;;22.40;;
74245;SDS011;62601;51.044;13.788;2022-11-15T07:28:40;34.60;;;23.00;;
74245;SDS011;62601;51.044;13.788;2022-11-15T07:31:04;36.28;;;22.55;;
74245;SDS011;62601;51.044;13.788;2022-11-15T07:33:24;36.83;;;23.33;;
74245;SDS011;62601;51.044;13.788;2022-11-15T07:35:44;34.80;;;23.52;;
74245;SDS011;62601;51.044;13.788;2022-11-15T07:38:04;31.20;;;22.25;;
74245;SDS011;62601;51.044;13.788;2022-11-15T07:40:26;35.75;;;22.90;;
74245;SDS011;62601;51.044;13.788;2022-11-15T07:42:48;40.20;;;23.60;;
74245;SDS011;62601;51.044;13.788;2022-11-15T07:45:09;39.88;;;26.27;;
74245;SDS011;62601;51.044;13.788;2022-11-15T07:47:30;36.00;;;23.05;;
74245;SDS011;62601;51.044;13.788;2022-11-15T07:49:51;38.95;;;24.67;;
74245;SDS011;62601;51.044;13.788;2022-11-15T07:52:12;36.60;;;24.13;;
74245;SDS011;62601;51.044;13.788;2022-11-15T07:54:32;37.00;;;25.35;;
74245;SDS011;62601;51.044;13.788;2022-11-15T07:56:52;36.42;;;23.63;;
74245;SDS011;62601;51.044;13.788;2022-11-15T07:59:12;37.03;;;23.75;;
74245;SDS011;62601;51.044;13.788;2022-11-15T08:01:33;33.20;;;23.25;;
74245;SDS011;62601;51.044;13.788;2022-11-15T08:03:58;32.50;;;22.48;;
74245;SDS011;62601;51.044;13.788;2022-11-15T08:06:18;35.33;;;22.90;;
74245;SDS011;62601;51.044;13.788;2022-11-15T08:08:46;36.30;;;23.70;;
74245;SDS011;62601;51.044;13.788;2022-11-15T08:11:06;32.15;;;20.33;;
74245;SDS011;62601;51.044;13.788;2022-11-15T08:13:27;33.97;;;21.98;;
74245;SDS011;62601;51.044;13.788;2022-11-15T08:15:49;35.40;;;21.35;;
74245;SDS011;62601;51.044;13.788;2022-11-15T08:18:11;31.27;;;20.13;;
74245;SDS011;62601;51.044;13.788;2022-11-15T08:20:35;35.85;;;21.90;;
74245;SDS011;62601;51.044;13.788;2022-11-15T08:23:00;31.65;;;21.30;;
74245;SDS011;62601;51.044;13.788;2022-11-15T08:25:20;36.28;;;22.52;;
74245;SDS011;62601;51.044;13.788;2022-11-15T08:27:42;33.85;;;22.58;;
74245;SDS011;62601;51.044;13.788;2022-11-15T08:30:04;36.15;;;21.60;;
74245;SDS011;62601;51.044;13.788;2022-11-15T08:32:29;32.58;;;21.35;;
74245;SDS011;62601;51.044;13.788;2022-11-15T08:34:51;32.13;;;21.95;;
74245;SDS011;62601;51.044;13.788;2022-11-15T08:37:13;33.22;;;20.88;;
74245;SDS011;62601;51.044;13.788;2022-11-15T08:39:34;32.70;;;20.83;;
74245;SDS011;62601;51.044;13.788;2022-11-15T08:41:56;29.60;;;20.25;;
74245;SDS011;62601;51.044;13.788;2022-11-15T08:44:17;32.90;;;21.33;;
74245;SDS011;62601;51.044;13.788;2022-11-15T08:46:38;34.55;;;22.92;;
74245;SDS011;62601;51.044;13.788;2022-11-15T08:48:59;36.00;;;22.52;;
74245;SDS011;62601;51.044;13.788;2022-11-15T08:51:21;31.90;;;21.15;;
74245;SDS011;62601;51.044;13.788;2022-11-15T08:53:43;30.33;;;20.85;;
74245;SDS011;62601;51.044;13.788;2022-11-15T08:56:06;34.67;;;21.67;;
74245;SDS011;62601;51.044;13.788;2022-11-15T08:58:28;30.58;;;20.83;;
74245;SDS011;62601;51.044;13.788;2022-11-15T09:00:49;31.40;;;21.45;;
74245;SDS011;62601;51.044;13.788;2022-11-15T09:03:12;29.83;;;20.85;;
74245;SDS011;62601;51.044;13.788;2022-11-15T09:05:35;29.15;;;21.45;;
74245;SDS011;62601;51.044;13.788;2022-11-15T09:07:56;33.58;;;21.67;;
74245;SDS011;62601;51.044;13.788;2022-11-15T09:10:18;33.75;;;21.45;;
74245;SDS011;62601;51.044;13.788;2022-11-15T09:12:39;32.30;;;22.58;;
74245;SDS011;62601;51.044;13.788;2022-11-15T09:15:00;31.60;;;21.48;;
74245;SDS011;62601;51.044;13.788;2022-11-15T09:17:22;33.40;;;22.23;;
74245;SDS011;62601;51.044;13.788;2022-11-15T09:19:42;32.03;;;21.55;;
74245;SDS011;62601;51.044;13.788;2022-11-15T09:22:05;33.88;;;22.63;;
74245;SDS011;62601;51.044;13.788;2022-11-15T09:24:27;38.38;;;25.33;;
74245;SDS011;62601;51.044;13.788;2022-11-15T09:26:49;35.20;;;23.33;;
74245;SDS011;62601;51.044;13.788;2022-11-15T09:29:11;32.30;;;20.13;;
74245;SDS011;62601;51.044;13.788;2022-11-15T09:31:32;32.33;;;22.25;;
74245;SDS011;62601;51.044;13.788;2022-11-15T09:33:53;30.08;;;19.23;;
74245;SDS011;62601;51.044;13.788;2022-11-15T09:36:15;29.45;;;19.63;;
74245;SDS011;62601;51.044;13.788;2022-11-15T09:38:35;32.47;;;20.13;;
74245;SDS011;62601;51.044;13.788;2022-11-15T09:41:05;32.10;;;20.00;;
74245;SDS011;62601;51.044;13.788;2022-11-15T09:48:55;27.13;;;19.17;;
74245;SDS011;62601;51.044;13.788;2022-11-15T09:51:48;27.20;;;19.38;;
74245;SDS011;62601;51.044;13.788;2022-11-15T09:54:11;34.63;;;21.10;;
74245;SDS011;62601;51.044;13.788;2022-11-15T09:56:37;30.80;;;20.73;;
74245;SDS011;62601;51.044;13.788;2022-11-15T10:04:13;25.98;;;18.38;;
74245;SDS011;62601;51.044;13.788;2022-11-15T10:06:34;26.73;;;18.38;;
74245;SDS011;62601;51.044;13.788;2022-11-15T10:09:06;26.90;;;18.10;;
74245;SDS011;62601;51.044;13.788;2022-11-15T10:11:32;23.88;;;18.00;;
74245;SDS011;62601;51.044;13.788;2022-11-15T10:13:56;25.50;;;18.45;;
74245;SDS011;62601;51.044;13.788;2022-11-15T10:19:26;27.08;;;18.60;;
74245;SDS011;62601;51.044;13.788;2022-11-15T10:24:30;27.00;;;18.67;;
74245;SDS011;62601;51.044;13.788;2022-11-15T10:26:52;29.58;;;19.48;;
74245;SDS011;62601;51.044;13.788;2022-11-15T10:29:23;25.92;;;17.50;;
74245;SDS011;62601;51.044;13.788;2022-11-15T10:31:45;24.27;;;16.92;;
74245;SDS011;62601;51.044;13.788;2022-11-15T10:34:19;22.42;;;15.90;;
74245;SDS011;62601;51.044;13.788;2022-11-15T10:36:59;21.23;;;16.83;;
74245;SDS011;62601;51.044;13.788;2022-11-15T10:39:19;22.73;;;16.77;;
74245;SDS011;62601;51.044;13.788;2022-11-15T10:41:41;22.42;;;16.52;;
74245;SDS011;62601;51.044;13.788;2022-11-15T10:46:38;23.45;;;17.08;;
74245;SDS011;62601;51.044;13.788;2022-11-15T10:50:02;23.60;;;17.63;;
74245;SDS011;62601;51.044;13.788;2022-11-15T10:52:02;24.35;;;18.38;;
74245;SDS011;62601;51.044;13.788;2022-11-15T10:54:29;26.03;;;19.40;;
74245;SDS011;62601;51.044;13.788;2022-11-15T10:56:51;29.65;;;20.50;;
74245;SDS011;62601;51.044;13.788;2022-11-15T10:59:16;25.30;;;19.10;;
74245;SDS011;62601;51.044;13.788;2022-11-15T11:01:46;25.37;;;18.00;;
74245;SDS011;62601;51.044;13.788;2022-11-15T11:04:08;24.60;;;17.85;;
74245;SDS011;62601;51.044;13.788;2022-11-15T11:06:31;22.80;;;17.25;;
74245;SDS011;62601;51.044;13.788;2022-11-15T11:09:10;23.88;;;16.88;;
74245;SDS011;62601;51.044;13.788;2022-11-15T11:11:51;25.10;;;17.15;;
74245;SDS011;62601;51.044;13.788;2022-11-15T11:14:25;22.20;;;16.27;;
74245;SDS011;62601;51.044;13.788;2022-11-15T11:16:48;21.85;;;15.95;;
74245;SDS011;62601;51.044;13.788;2022-11-15T11:21:51;23.25;;;16.77;;
74245;SDS011;62601;51.044;13.788;2022-11-15T11:24:21;22.20;;;15.65;;
74245;SDS011;62601;51.044;13.788;2022-11-15T11:26:58;20.63;;;14.65;;
74245;SDS011;62601;51.044;13.788;2022-11-15T11:50:29;21.38;;;15.77;;
74245;SDS011;62601;51.044;13.788;2022-11-15T11:53:01;25.55;;;16.35;;
74245;SDS011;62601;51.044;13.788;2022-11-15T11:55:26;25.02;;;17.83;;
74245;SDS011;62601;51.044;13.788;2022-11-15T12:00:19;28.45;;;18.27;;
74245;SDS011;62601;51.044;13.788;2022-11-15T12:03:03;26.40;;;17.63;;
74245;SDS011;62601;51.044;13.788;2022-11-15T12:05:32;27.80;;;18.10;;
74245;SDS011;62601;51.044;13.788;2022-11-15T12:07:58;23.38;;;16.67;;
74245;SDS011;62601;51.044;13.788;2022-11-15T12:10:25;26.55;;;17.90;;
74245;SDS011;62601;51.044;13.788;2022-11-15T12:15:30;26.33;;;16.30;;
74245;SDS011;62601;51.044;13.788;2022-11-15T12:18:02;21.83;;;16.17;;
74245;SDS011;62601;51.044;13.788;2022-11-15T12:20:26;21.10;;;15.55;;
74245;SDS011;62601;51.044;13.788;2022-11-15T12:23:01;23.17;;;17.40;;
74245;SDS011;62601;51.044;13.788;2022-11-15T12:25:29;22.75;;;15.88;;
74245;SDS011;62601;51.044;13.788;2022-11-15T12:27:54;21.67;;;15.30;;
74245;SDS011;62601;51.044;13.788;2022-11-15T12:30:18;21.70;;;15.55;;
74245;SDS011;62601;51.044;13.788;2022-11-15T12:32:48;22.33;;;16.30;;
74245;SDS011;62601;51.044;13.788;2022-11-15T12:35:24;23.48;;;18.15;;
74245;SDS011;62601;51.044;13.788;2022-11-15T12:37:55;23.77;;;16.98;;
74245;SDS011;62601;51.044;13.788;2022-11-15T12:40:33;20.08;;;15.75;;
74245;SDS011;62601;51.044;13.788;2022-11-15T12:43:02;20.92;;;16.10;;
74245;SDS011;62601;51.044;13.788;2022-11-15T12:45:30;22.40;;;16.67;;
74245;SDS011;62601;51.044;13.788;2022-11-15T12:50:56;19.88;;;15.68;;
74245;SDS011;62601;51.044;13.788;2022-11-15T12:53:27;24.02;;;16.20;;
74245;SDS011;62601;51.044;13.788;2022-11-15T12:56:33;20.23;;;16.05;;
74245;SDS011;62601;51.044;13.788;2022-11-15T13:01:06;24.27;;;16.38;;
74245;SDS011;62601;51.044;13.788;2022-11-15T13:03:28;19.13;;;15.15;;
74245;SDS011;62601;51.044;13.788;2022-11-15T13:05:56;22.63;;;15.85;;
74245;SDS011;62601;51.044;13.788;2022-11-15T13:10:58;22.70;;;16.15;;
74245;SDS011;62601;51.044;13.788;2022-11-15T13:13:41;22.80;;;17.60;;
74245;SDS011;62601;51.044;13.788;2022-11-15T13:16:00;20.98;;;15.93;;
74245;SDS011;62601;51.044;13.788;2022-11-15T13:18:29;21.58;;;16.00;;
74245;SDS011;62601;51.044;13.788;2022-11-15T13:20:51;21.80;;;15.00;;
74245;SDS011;62601;51.044;13.788;2022-11-15T13:23:15;20.77;;;15.43;;
74245;SDS011;62601;51.044;13.788;2022-11-15T13:30:52;19.60;;;15.20;;
74245;SDS011;62601;51.044;13.788;2022-11-15T13:33:31;22.85;;;16.70;;
74245;SDS011;62601;51.044;13.788;2022-11-15T13:35:54;22.75;;;17.08;;
74245;SDS011;62601;51.044;13.788;2022-11-15T13:38:38;24.33;;;17.23;;
74245;SDS011;62601;51.044;13.788;2022-11-15T13:40:59;21.02;;;14.85;;
74245;SDS011;62601;51.044;13.788;2022-11-15T13:46:23;21.98;;;16.58;;
74245;SDS011;62601;51.044;13.788;2022-11-15T13:48:46;22.55;;;16.00;;
74245;SDS011;62601;51.044;13.788;2022-11-15T13:51:15;23.65;;;17.10;;
74245;SDS011;62601;51.044;13.788;2022-11-15T13:53:38;23.77;;;17.00;;
74245;SDS011;62601;51.044;13.788;2022-11-15T13:56:09;25.05;;;17.58;;
74245;SDS011;62601;51.044;13.788;2022-11-15T13:58:31;24.30;;;17.20;;
74245;SDS011;62601;51.044;13.788;2022-11-15T14:01:02;21.50;;;15.70;;
74245;SDS011;62601;51.044;13.788;2022-11-15T14:03:27;24.92;;;17.92;;
74245;SDS011;62601;51.044;13.788;2022-11-15T14:06:09;24.77;;;17.15;;
74245;SDS011;62601;51.044;13.788;2022-11-15T14:08:30;24.40;;;17.42;;
74245;SDS011;62601;51.044;13.788;2022-11-15T14:13:34;24.00;;;17.42;;
74245;SDS011;62601;51.044;13.788;2022-11-15T14:16:12;28.20;;;18.10;;
74245;SDS011;62601;51.044;13.788;2022-11-15T14:18:43;24.17;;;17.75;;
74245;SDS011;62601;51.044;13.788;2022-11-15T14:21:08;23.95;;;17.83;;
74245;SDS011;62601;51.044;13.788;2022-11-15T14:23:29;26.33;;;18.25;;
74245;SDS011;62601;51.044;13.788;2022-11-15T14:25:57;25.00;;;16.95;;
74245;SDS011;62601;51.044;13.788;2022-11-15T14:30:45;23.13;;;17.13;;
74245;SDS011;62601;51.044;13.788;2022-11-15T14:35:45;26.75;;;17.25;;
74245;SDS011;62601;51.044;13.788;2022-11-15T14:38:07;24.52;;;16.80;;
74245;SDS011;62601;51.044;13.788;2022-11-15T14:40:28;24.08;;;17.30;;
74245;SDS011;62601;51.044;13.788;2022-11-15T14:42:49;27.35;;;18.45;;
74245;SDS011;62601;51.044;13.788;2022-11-15T14:45:18;23.80;;;17.25;;
74245;SDS011;62601;51.044;13.788;2022-11-15T14:47:47;24.85;;;16.58;;
74245;SDS011;62601;51.044;13.788;2022-11-15T14:50:16;23.80;;;16.48;;
74245;SDS011;62601;51.044;13.788;2022-11-15T14:52:38;25.92;;;16.80;;
74245;SDS011;62601;51.044;13.788;2022-11-15T14:55:00;23.40;;;16.98;;
74245;SDS011;62601;51.044;13.788;2022-11-15T14:57:22;21.52;;;16.38;;
74245;SDS011;62601;51.044;13.788;2022-11-15T14:59:43;24.73;;;17.10;;
74245;SDS011;62601;51.044;13.788;2022-11-15T15:02:15;23.33;;;16.70;;
74245;SDS011;62601;51.044;13.788;2022-11-15T15:04:37;27.73;;;17.55;;
74245;SDS011;62601;51.044;13.788;2022-11-15T15:06:58;24.23;;;15.90;;
74245;SDS011;62601;51.044;13.788;2022-11-15T15:09:20;26.10;;;17.58;;
74245;SDS011;62601;51.044;13.788;2022-11-15T15:11:41;25.17;;;17.83;;
74245;SDS011;62601;51.044;13.788;2022-11-15T15:14:03;23.58;;;16.50;;
74245;SDS011;62601;51.044;13.788;2022-11-15T15:16:24;24.30;;;17.17;;
74245;SDS011;62601;51.044;13.788;2022-11-15T15:18:46;24.15;;;17.00;;
74245;SDS011;62601;51.044;13.788;2022-11-15T15:21:23;22.48;;;15.80;;
74245;SDS011;62601;51.044;13.788;2022-11-15T15:23:45;26.13;;;18.08;;
74245;SDS011;62601;51.044;13.788;2022-11-15T15:26:06;22.35;;;17.25;;
74245;SDS011;62601;51.044;13.788;2022-11-15T15:28:28;26.15;;;18.33;;
74245;SDS011;62601;51.044;13.788;2022-11-15T15:30:49;26.75;;;18.38;;
74245;SDS011;62601;51.044;13.788;2022-11-15T15:33:11;21.52;;;16.70;;
74245;SDS011;62601;51.044;13.788;2022-11-15T15:35:31;26.75;;;17.65;;